This is the latest recevied weather packets stored in our database for station/object OK2ILA-10. If no packets are shown the sender has not sent any weather packets the latest 10 day(s).
| Time | Temp. | Humidity | Pressure | Rain* | Wind** | Luminosity | Snow |
|---|---|---|---|---|---|---|---|
| 1787741498 | 18.89° C | 64% | 1021.5 hPa | - | - | - | - |
| 1787740897 | 20° C | 63% | 1021.5 hPa | - | - | - | - |
| 1787740297 | 20.56° C | 62% | 1021.4 hPa | - | - | - | - |
| 1787739701 | 19.44° C | 62% | 1021.4 hPa | - | - | - | - |
| 1787739697 | 19.44° C | 62% | 1021.4 hPa | - | - | - | - |
| 1787739101 | 19.44° C | 63% | 1021.3 hPa | - | - | - | - |
| 1787739097 | 19.44° C | 63% | 1021.3 hPa | - | - | - | - |
| 1787738497 | 18.89° C | 64% | 1021.3 hPa | - | - | - | - |
| 1787737900 | 20° C | 60% | 1021.4 hPa | - | - | - | - |
| 1787737896 | 20° C | 60% | 1021.4 hPa | - | - | - | - |
| 1787737300 | 20.56° C | 62% | 1021.3 hPa | - | - | - | - |
| 1787737296 | 20.56° C | 62% | 1021.3 hPa | - | - | - | - |
| 1787736700 | 18.89° C | 65% | 1021.4 hPa | - | - | - | - |
| 1787736696 | 18.89° C | 65% | 1021.4 hPa | - | - | - | - |
| 1787736096 | 17.78° C | 65% | 1021.4 hPa | - | - | - | - |
| 1787735495 | 20° C | 63% | 1021.3 hPa | - | - | - | - |
| 1787734899 | 19.44° C | 65% | 1021.1 hPa | - | - | - | - |
| 1787734895 | 19.44° C | 65% | 1021.1 hPa | - | - | - | - |
| 1787734299 | 18.89° C | 66% | 1021.1 hPa | - | - | - | - |
| 1787734295 | 18.89° C | 66% | 1021.1 hPa | - | - | - | - |
| 1787733699 | 18.89° C | 68% | 1021.2 hPa | - | - | - | - |
| 1787733695 | 18.89° C | 68% | 1021.2 hPa | - | - | - | - |
| 1787733099 | 16.67° C | 72% | 1021.2 hPa | - | - | - | - |
| 1787733095 | 16.67° C | 72% | 1021.2 hPa | - | - | - | - |
| 1787732499 | 16.67° C | 73% | 1021.4 hPa | - | - | - | - |
* Rain since midnight (hover to see other rain measurements)
** Current wind speed in m/s (hover to see current wind gust speed)